createdAt,value
2018-07-06T00:01:27.550Z,11.30
2018-07-06T00:04:00.278Z,12.90
2018-07-06T00:06:38.976Z,11.90
2018-07-06T00:09:17.763Z,11.97
2018-07-06T00:11:56.302Z,12.97
2018-07-06T00:14:35.025Z,11.63
2018-07-06T00:17:13.624Z,12.50
2018-07-06T00:19:52.190Z,9.93
2018-07-06T00:22:30.674Z,10.80
2018-07-06T00:25:09.172Z,10.80
2018-07-06T00:27:47.616Z,10.70
2018-07-06T00:30:26.119Z,11.40
2018-07-06T00:33:04.724Z,11.83
2018-07-06T00:35:37.439Z,10.60
2018-07-06T00:38:16.085Z,12.40
2018-07-06T00:40:54.716Z,12.07
2018-07-06T00:43:33.245Z,10.70
2018-07-06T00:46:11.776Z,10.30
2018-07-06T00:48:50.383Z,9.97
2018-07-06T00:51:28.829Z,10.03
2018-07-06T00:54:07.411Z,12.20
2018-07-06T00:56:45.887Z,10.30
2018-07-06T00:59:24.465Z,9.47
2018-07-06T01:15:31.820Z,11.00
2018-07-06T01:18:10.304Z,13.20
2018-07-06T01:20:48.767Z,12.73
2018-07-06T01:23:27.363Z,13.70
2018-07-06T01:26:05.874Z,13.60
2018-07-06T01:28:44.331Z,15.77
2018-07-06T01:31:23.061Z,13.20
2018-07-06T01:34:01.652Z,15.80
2018-07-06T01:36:40.274Z,16.50
2018-07-06T01:39:18.864Z,15.80
2018-07-06T01:41:57.377Z,15.97
2018-07-06T01:44:35.875Z,15.93
2018-07-06T01:47:14.568Z,16.20
2018-07-06T01:49:53.087Z,17.33
2018-07-06T01:52:31.556Z,15.30
2018-07-06T01:55:10.183Z,17.03
2018-07-06T01:57:48.811Z,17.03
2018-07-06T02:00:27.417Z,15.13
2018-07-06T02:03:06.003Z,15.50
2018-07-06T02:05:44.567Z,15.13
2018-07-06T02:08:23.037Z,15.60
2018-07-06T02:11:01.564Z,15.10
2018-07-06T02:13:40.198Z,15.30
2018-07-06T02:16:18.773Z,17.07
2018-07-06T02:18:57.434Z,15.70
2018-07-06T02:21:35.950Z,16.57
2018-07-06T02:24:14.595Z,15.73
2018-07-06T02:26:53.188Z,16.10
2018-07-06T02:29:31.817Z,16.07
2018-07-06T02:32:10.314Z,15.77
2018-07-06T02:34:48.812Z,14.67
2018-07-06T02:37:27.340Z,15.30
2018-07-06T02:40:05.800Z,15.27
2018-07-06T02:42:44.405Z,13.90
2018-07-06T02:45:22.936Z,14.10
2018-07-06T02:48:01.470Z,14.10
2018-07-06T02:50:39.976Z,12.73
2018-07-06T02:53:18.600Z,13.73
2018-07-06T02:55:57.226Z,13.10
2018-07-06T02:58:35.682Z,13.03
2018-07-06T03:01:14.236Z,13.30
2018-07-06T03:03:52.728Z,13.23
2018-07-06T03:06:31.489Z,12.90
2018-07-06T03:09:10.017Z,12.17
2018-07-06T03:11:48.677Z,12.83
2018-07-06T03:14:27.238Z,12.43
2018-07-06T03:17:05.798Z,12.30
2018-07-06T03:19:44.281Z,12.40
2018-07-06T03:22:22.951Z,11.77
2018-07-06T03:25:01.601Z,11.90
2018-07-06T03:27:40.187Z,11.67
2018-07-06T03:30:18.732Z,13.43
2018-07-06T03:32:57.245Z,12.10
2018-07-06T03:35:35.927Z,11.87
2018-07-06T03:38:14.432Z,12.23
2018-07-06T03:40:53.029Z,10.83
2018-07-06T03:43:31.502Z,11.77
2018-07-06T03:46:09.989Z,11.30
2018-07-06T03:48:48.647Z,11.53
2018-07-06T03:51:27.138Z,11.17
2018-07-06T03:54:05.831Z,12.27
2018-07-06T03:56:44.395Z,11.17
2018-07-06T03:59:17.182Z,11.17
2018-07-06T04:01:55.819Z,10.63
2018-07-06T04:04:34.504Z,11.00
2018-07-06T04:07:13.164Z,10.70
2018-07-06T04:09:51.782Z,12.07
2018-07-06T04:12:24.507Z,10.67
2018-07-06T04:15:03.411Z,10.20
2018-07-06T04:17:41.891Z,10.30
2018-07-06T04:20:20.499Z,10.83
2018-07-06T04:22:59.145Z,10.23
2018-07-06T04:25:37.792Z,9.93
2018-07-06T04:28:16.466Z,10.00
2018-07-06T04:30:54.984Z,10.40
2018-07-06T04:33:33.441Z,9.93
2018-07-06T04:36:12.062Z,9.73
2018-07-06T04:38:50.954Z,9.87
2018-07-06T04:41:29.472Z,10.40
2018-07-06T04:44:07.939Z,10.10
2018-07-06T04:46:46.452Z,9.80
2018-07-06T04:49:24.968Z,11.27
2018-07-06T04:52:03.873Z,10.90
2018-07-06T04:54:42.716Z,9.70
2018-07-06T04:57:21.392Z,9.90
2018-07-06T05:00:00.898Z,9.80
2018-07-06T05:02:39.516Z,10.03
2018-07-06T05:05:18.102Z,10.83
2018-07-06T05:07:57.524Z,11.50
2018-07-06T05:10:36.025Z,10.20
2018-07-06T05:13:14.671Z,11.70
2018-07-06T05:15:53.337Z,10.10
2018-07-06T05:18:31.947Z,10.60
2018-07-06T05:21:10.464Z,11.07
2018-07-06T05:23:48.968Z,10.40
2018-07-06T05:26:21.898Z,11.37
2018-07-06T05:29:00.511Z,10.40
2018-07-06T05:31:39.247Z,10.67
2018-07-06T05:34:17.790Z,10.33
2018-07-06T05:36:56.347Z,10.00
2018-07-06T05:39:34.831Z,9.43
2018-07-06T05:42:13.620Z,9.87
2018-07-06T05:44:52.202Z,10.70
2018-07-06T05:47:25.045Z,8.87
2018-07-06T05:50:03.492Z,8.37
2018-07-06T05:52:42.075Z,8.27
2018-07-06T05:55:20.643Z,9.43
2018-07-06T05:57:59.148Z,8.20
2018-07-06T06:00:37.911Z,8.60
2018-07-06T06:03:16.424Z,8.03
2018-07-06T06:05:54.914Z,8.27
2018-07-06T06:08:21.219Z,7.90
2018-07-06T06:10:48.331Z,7.73
2018-07-06T06:13:15.548Z,10.27
2018-07-06T06:15:42.676Z,10.30
2018-07-06T06:18:09.869Z,11.80
2018-07-06T06:20:37.019Z,11.23
2018-07-06T06:23:04.093Z,10.30
2018-07-06T06:25:31.194Z,10.00
2018-07-06T06:27:59.136Z,10.13
2018-07-06T06:30:26.292Z,10.27
2018-07-06T06:32:53.781Z,10.17
2018-07-06T06:35:20.968Z,11.07
2018-07-06T06:37:48.200Z,9.40
2018-07-06T06:40:15.348Z,8.40
2018-07-06T06:42:42.474Z,8.30
2018-07-06T06:45:09.709Z,7.57
2018-07-06T06:47:36.848Z,7.80
2018-07-06T06:50:04.052Z,7.27
2018-07-06T06:52:31.183Z,8.73
2018-07-06T06:54:58.291Z,8.73
2018-07-06T06:57:25.488Z,11.20
2018-07-06T06:59:52.671Z,7.60
2018-07-06T07:02:19.788Z,8.57
2018-07-06T07:04:47.022Z,7.87
2018-07-06T07:23:58.146Z,6.80
2018-07-06T07:26:25.280Z,6.23
2018-07-06T07:28:52.443Z,6.23
2018-07-06T07:31:19.880Z,7.40
2018-07-06T07:33:47.011Z,6.23
2018-07-06T07:36:14.181Z,7.00
2018-07-06T07:38:41.458Z,8.90
2018-07-06T07:41:08.645Z,6.57
2018-07-06T07:43:35.847Z,6.93
2018-07-06T07:46:02.925Z,6.17
2018-07-06T07:48:30.177Z,11.63
2018-07-06T07:51:08.887Z,6.97
2018-07-06T07:53:47.491Z,8.77
2018-07-06T07:56:14.580Z,9.30
2018-07-06T07:58:41.836Z,7.00
2018-07-06T08:01:09.064Z,7.50
2018-07-06T08:03:36.131Z,10.90
2018-07-06T08:06:03.460Z,7.53
2018-07-06T08:08:30.607Z,7.77
2018-07-06T08:10:57.678Z,7.17
2018-07-06T08:13:24.852Z,7.53
2018-07-06T08:15:52.372Z,7.60
2018-07-06T08:18:19.533Z,7.87
2018-07-06T08:20:46.620Z,11.50
2018-07-06T08:23:13.780Z,8.33
2018-07-06T08:25:41.020Z,8.00
2018-07-06T08:28:08.175Z,7.50
2018-07-06T08:30:35.396Z,7.77
2018-07-06T08:33:02.491Z,9.50
2018-07-06T08:35:41.006Z,8.60
2018-07-06T08:38:08.095Z,7.60
2018-07-06T08:40:35.268Z,7.40
2018-07-06T08:43:03.623Z,12.03
2018-07-06T08:45:31.636Z,7.20
2018-07-06T08:47:58.763Z,6.80
2018-07-06T08:50:25.933Z,8.00
2018-07-06T08:52:53.707Z,6.23
2018-07-06T08:55:21.440Z,6.07
2018-07-06T08:57:50.895Z,5.90
2018-07-06T09:00:17.980Z,6.13
2018-07-06T09:02:45.065Z,5.33
2018-07-06T09:05:12.550Z,4.97
2018-07-06T09:07:39.767Z,4.73
2018-07-06T09:10:06.928Z,5.00
2018-07-06T09:12:34.088Z,5.53
2018-07-06T09:15:02.001Z,5.10
2018-07-06T09:17:29.196Z,5.80
2018-07-06T09:19:57.469Z,5.47
2018-07-06T09:22:24.556Z,5.50
2018-07-06T09:24:52.817Z,6.10
2018-07-06T09:27:20.660Z,6.03
2018-07-06T09:29:47.792Z,6.10
2018-07-06T09:48:58.499Z,5.77
2018-07-06T09:51:25.645Z,4.70
2018-07-06T09:53:52.789Z,7.50
2018-07-06T09:56:20.001Z,5.63
2018-07-06T09:58:47.120Z,5.23
2018-07-06T10:01:14.225Z,5.23
2018-07-06T10:03:41.353Z,5.07
2018-07-06T10:06:08.521Z,5.00
2018-07-06T10:08:35.735Z,5.70
2018-07-06T10:11:02.939Z,5.10
2018-07-06T10:13:30.301Z,5.20
2018-07-06T10:15:57.471Z,4.90
2018-07-06T10:18:24.572Z,5.13
2018-07-06T10:20:51.635Z,5.80
2018-07-06T10:23:18.855Z,5.33
2018-07-06T10:25:45.931Z,4.43
2018-07-06T10:28:20.835Z,4.93
2018-07-06T10:33:05.190Z,5.63
2018-07-06T10:35:32.303Z,5.80
2018-07-06T10:37:59.504Z,5.50
2018-07-06T10:40:26.653Z,7.30
2018-07-06T10:42:53.835Z,5.50
2018-07-06T10:45:21.255Z,6.50
2018-07-06T10:47:48.420Z,5.93
2018-07-06T10:50:15.574Z,6.00
2018-07-06T10:52:42.795Z,6.20
2018-07-06T10:55:09.989Z,6.40
2018-07-06T10:57:37.126Z,6.40
2018-07-06T11:00:04.291Z,5.87
2018-07-06T11:02:31.464Z,6.17
2018-07-06T11:04:58.672Z,6.10
2018-07-06T11:07:25.756Z,5.43
2018-07-06T11:09:52.894Z,5.57
2018-07-06T11:12:20.043Z,5.63
2018-07-06T11:14:47.437Z,5.47
2018-07-06T11:17:14.709Z,5.63
2018-07-06T11:19:41.976Z,5.10
2018-07-06T11:22:09.104Z,5.40
2018-07-06T11:24:36.227Z,5.40
2018-07-06T11:27:03.502Z,5.53
2018-07-06T11:29:30.730Z,5.80
2018-07-06T11:31:57.942Z,4.73
2018-07-06T11:34:25.235Z,4.90
2018-07-06T11:36:52.520Z,4.97
2018-07-06T11:39:19.865Z,5.60
2018-07-06T11:41:47.089Z,4.97
2018-07-06T11:44:14.343Z,5.33
2018-07-06T11:46:41.414Z,5.80
2018-07-06T11:49:09.641Z,5.90
2018-07-06T11:51:36.808Z,4.97
2018-07-06T11:54:03.999Z,4.53
2018-07-06T11:56:31.089Z,4.73
2018-07-06T11:58:58.216Z,5.50
2018-07-06T12:01:25.369Z,4.93
2018-07-06T12:03:52.576Z,5.07
2018-07-06T12:06:19.652Z,5.67
2018-07-06T12:08:47.009Z,5.20
2018-07-06T12:11:14.794Z,4.90
2018-07-06T12:13:41.917Z,5.40
2018-07-06T12:16:09.054Z,5.70
2018-07-06T12:18:36.421Z,5.20
2018-07-06T12:21:03.695Z,4.53
2018-07-06T12:23:30.732Z,5.47
2018-07-06T12:25:57.877Z,5.20
2018-07-06T12:28:24.998Z,5.77
2018-07-06T12:47:35.044Z,5.30
2018-07-06T12:50:02.886Z,5.40
2018-07-06T12:52:30.052Z,5.80
2018-07-06T12:54:57.558Z,5.43
2018-07-06T12:57:24.836Z,5.47
2018-07-06T12:59:52.695Z,5.53
2018-07-06T13:02:20.288Z,5.30
2018-07-06T13:04:47.679Z,5.43
2018-07-06T13:07:14.832Z,5.73
2018-07-06T13:09:42.286Z,5.63
2018-07-06T13:12:10.232Z,6.33
2018-07-06T13:14:37.464Z,5.60
2018-07-06T13:17:04.756Z,5.77
2018-07-06T13:19:31.880Z,5.77
2018-07-06T13:21:59.166Z,5.50
2018-07-06T13:24:27.336Z,6.00
2018-07-06T13:26:54.533Z,5.13
2018-07-06T13:29:21.630Z,5.50
2018-07-06T13:31:48.854Z,5.90
2018-07-06T13:34:16.042Z,6.90
2018-07-06T13:36:43.123Z,6.00
2018-07-06T13:39:10.307Z,6.50
2018-07-06T13:41:37.886Z,6.40
2018-07-06T13:44:05.158Z,6.20
2018-07-06T13:46:32.395Z,6.47
2018-07-06T13:48:59.525Z,6.83
2018-07-06T13:51:27.649Z,6.90
2018-07-06T13:53:54.978Z,6.97
2018-07-06T13:56:22.110Z,6.33
2018-07-06T13:58:51.073Z,6.10
2018-07-06T14:01:19.512Z,6.50
2018-07-06T14:03:46.817Z,6.87
2018-07-06T14:06:13.989Z,5.60
2018-07-06T14:08:41.212Z,6.17
2018-07-06T14:11:08.400Z,6.77
2018-07-06T14:13:35.546Z,6.50
2018-07-06T14:16:02.666Z,6.03
2018-07-06T14:18:31.154Z,6.67
2018-07-06T14:20:58.531Z,5.43
2018-07-06T14:23:25.907Z,5.37
2018-07-06T14:25:53.034Z,5.60
2018-07-06T14:28:20.223Z,5.23
2018-07-06T14:30:47.379Z,5.10
2018-07-06T14:33:14.568Z,5.40
2018-07-06T14:35:41.765Z,5.80
2018-07-06T14:38:08.905Z,4.73
2018-07-06T14:40:36.022Z,4.60
2018-07-06T14:43:03.225Z,4.27
2018-07-06T14:45:30.767Z,3.83
2018-07-06T14:47:57.919Z,4.23
2018-07-06T14:50:25.353Z,4.23
2018-07-06T14:52:52.514Z,4.47
2018-07-06T14:55:19.741Z,3.90
2018-07-06T14:57:47.525Z,4.00
2018-07-06T15:00:16.629Z,3.67
2018-07-06T15:02:43.824Z,3.90
2018-07-06T15:05:11.651Z,3.93
2018-07-06T15:07:40.735Z,4.17
2018-07-06T15:10:08.663Z,3.87
2018-07-06T15:12:35.939Z,4.17
2018-07-06T15:15:03.271Z,4.13
2018-07-06T15:34:14.037Z,4.27
2018-07-06T15:36:41.365Z,3.80
2018-07-06T15:39:08.477Z,4.30
2018-07-06T15:41:35.668Z,5.50
2018-07-06T15:44:02.860Z,5.67
2018-07-06T15:46:30.299Z,5.87
2018-07-06T15:48:57.920Z,5.23
2018-07-06T15:51:25.038Z,5.00
2018-07-06T15:53:52.223Z,4.37
2018-07-06T15:56:19.503Z,5.37
2018-07-06T15:58:46.635Z,4.60
2018-07-06T16:01:14.091Z,4.83
2018-07-06T16:03:41.758Z,5.40
2018-07-06T16:06:10.058Z,5.90
2018-07-06T16:08:37.360Z,6.00
2018-07-06T16:11:04.615Z,6.37
2018-07-06T16:13:32.456Z,6.80
2018-07-06T16:15:59.703Z,6.63
2018-07-06T16:18:26.855Z,6.00
2018-07-06T16:20:54.185Z,5.47
2018-07-06T16:23:21.329Z,6.40
2018-07-06T16:25:48.587Z,6.87
2018-07-06T16:28:15.863Z,6.20
2018-07-06T16:30:43.415Z,6.13
2018-07-06T16:33:11.524Z,6.10
2018-07-06T16:35:39.320Z,6.47
2018-07-06T16:38:06.486Z,7.17
2018-07-06T16:40:34.241Z,5.93
2018-07-06T16:43:01.492Z,6.47
2018-07-06T16:45:28.631Z,6.20
2018-07-06T16:47:55.832Z,5.90
2018-07-06T16:50:22.968Z,6.80
2018-07-06T16:52:50.148Z,6.10
2018-07-06T16:55:17.367Z,6.13
2018-07-06T16:57:44.519Z,5.80
2018-07-06T17:00:12.402Z,6.00
2018-07-06T17:02:39.443Z,6.50
2018-07-06T17:05:07.261Z,6.53
2018-07-06T17:07:34.390Z,5.87
2018-07-06T17:10:01.626Z,6.57
2018-07-06T17:12:28.741Z,5.70
2018-07-06T17:14:56.222Z,6.30
2018-07-06T17:17:23.473Z,6.93
2018-07-06T17:19:51.265Z,6.40
2018-07-06T17:22:18.547Z,6.53
2018-07-06T17:24:45.815Z,6.77
2018-07-06T17:27:13.756Z,6.40
2018-07-06T17:29:40.939Z,5.93
2018-07-06T17:32:08.128Z,6.20
2018-07-06T17:34:35.391Z,5.37
2018-07-06T17:37:02.537Z,10.00
2018-07-06T17:39:29.710Z,7.50
2018-07-06T17:41:57.113Z,8.43
2018-07-06T17:44:24.319Z,5.80
2018-07-06T17:46:51.387Z,5.97
2018-07-06T17:49:18.616Z,5.87
2018-07-06T17:51:45.811Z,6.23
2018-07-06T17:54:13.219Z,5.90
2018-07-06T17:56:40.315Z,16.63
2018-07-06T17:59:08.297Z,6.07
2018-07-06T18:01:35.675Z,6.27
2018-07-06T18:04:02.866Z,6.20
2018-07-06T18:06:30.016Z,6.67
2018-07-06T18:08:57.098Z,5.97
2018-07-06T18:11:25.237Z,6.17
2018-07-06T18:13:53.058Z,6.17
2018-07-06T18:16:20.196Z,6.70
2018-07-06T18:18:47.443Z,6.87
2018-07-06T18:21:15.385Z,6.17
2018-07-06T18:23:42.854Z,7.40
2018-07-06T18:26:10.122Z,5.93
2018-07-06T18:28:37.453Z,8.30
2018-07-06T18:31:04.681Z,8.80
2018-07-06T18:33:31.832Z,10.40
2018-07-06T18:35:59.517Z,6.83
2018-07-06T18:38:26.989Z,7.50
2018-07-06T18:40:54.082Z,8.27
2018-07-06T18:43:21.947Z,6.80
2018-07-06T18:45:49.103Z,6.60
2018-07-06T18:48:16.948Z,7.67
2018-07-06T18:50:44.206Z,7.00
2018-07-06T18:53:11.493Z,7.23
2018-07-06T18:55:38.824Z,7.20
2018-07-06T18:58:06.377Z,7.67
2018-07-06T19:00:35.051Z,7.60
2018-07-06T19:03:02.141Z,7.67
2018-07-06T19:05:30.090Z,7.13
2018-07-06T19:07:57.286Z,7.73
2018-07-06T19:10:25.656Z,6.50
2018-07-06T19:12:53.062Z,7.67
2018-07-06T19:15:20.274Z,7.33
2018-07-06T19:17:48.403Z,7.10
2018-07-06T19:20:15.746Z,8.20
2018-07-06T19:22:43.065Z,7.87
2018-07-06T19:25:10.521Z,7.30
2018-07-06T19:27:38.122Z,7.57
2018-07-06T19:30:06.285Z,8.03
2018-07-06T19:32:33.512Z,7.60
2018-07-06T19:35:00.811Z,7.53
2018-07-06T19:37:27.957Z,8.83
2018-07-06T19:39:55.741Z,7.37
2018-07-06T19:42:22.924Z,7.90
2018-07-06T19:44:51.050Z,7.70
2018-07-06T19:47:18.569Z,8.50
2018-07-06T19:49:46.081Z,7.50
2018-07-06T19:52:14.099Z,7.00
2018-07-06T19:54:42.924Z,7.67
2018-07-06T19:57:11.292Z,7.60
2018-07-06T19:59:40.619Z,7.73
2018-07-06T20:02:10.947Z,8.20
2018-07-06T20:04:38.116Z,9.43
2018-07-06T20:07:05.591Z,9.23
2018-07-06T20:09:35.566Z,8.40
2018-07-06T20:12:03.060Z,8.20
2018-07-06T20:14:30.278Z,8.20
2018-07-06T20:16:57.907Z,8.10
2018-07-06T20:19:25.036Z,9.97
2018-07-06T20:21:52.404Z,8.80
2018-07-06T20:24:20.164Z,7.83
2018-07-06T20:26:47.513Z,8.70
2018-07-06T20:29:14.662Z,7.87
2018-07-06T20:31:41.901Z,8.83
2018-07-06T20:34:09.061Z,8.70
2018-07-06T20:36:36.460Z,8.70
2018-07-06T20:39:04.810Z,9.10
2018-07-06T20:41:32.761Z,12.40
2018-07-06T20:44:00.908Z,8.60
2018-07-06T20:46:28.228Z,12.00
2018-07-06T20:48:56.099Z,11.90
2018-07-06T20:51:23.280Z,8.50
2018-07-06T20:53:52.499Z,8.20
2018-07-06T20:56:20.540Z,8.80
2018-07-06T20:58:48.005Z,9.50
2018-07-06T21:01:15.719Z,9.13
2018-07-06T21:03:43.520Z,8.57
2018-07-06T21:06:10.667Z,12.30
2018-07-06T21:08:38.243Z,9.50
2018-07-06T21:11:05.481Z,18.70
2018-07-06T21:13:32.639Z,9.47
2018-07-06T21:16:00.256Z,9.20
2018-07-06T21:18:27.370Z,8.50
2018-07-06T21:20:54.704Z,9.60
2018-07-06T21:23:22.845Z,9.00
2018-07-06T21:25:50.273Z,9.00
2018-07-06T21:28:17.421Z,10.17
2018-07-06T21:30:44.578Z,9.60
2018-07-06T21:33:11.904Z,9.20
2018-07-06T21:35:38.993Z,9.80
2018-07-06T21:38:06.097Z,9.23
2018-07-06T21:40:33.681Z,8.80
2018-07-06T21:43:01.045Z,8.73
2018-07-06T21:45:28.218Z,9.80
2018-07-06T21:47:55.438Z,12.40
2018-07-06T21:50:22.599Z,14.17
2018-07-06T21:52:50.380Z,12.07
2018-07-06T21:55:17.574Z,10.90
2018-07-06T21:57:44.706Z,10.13
2018-07-06T22:00:11.787Z,9.40
2018-07-06T22:02:39.011Z,8.97
2018-07-06T22:05:06.215Z,9.70
2018-07-06T22:07:33.319Z,42.93
2018-07-06T22:10:00.682Z,23.73
2018-07-06T22:12:28.108Z,10.53
2018-07-06T22:14:55.473Z,9.57
2018-07-06T22:17:22.941Z,10.23
2018-07-06T22:19:51.883Z,16.90
2018-07-06T22:22:19.489Z,16.33
2018-07-06T22:24:46.686Z,12.03
2018-07-06T22:27:14.049Z,9.37
2018-07-06T22:29:42.767Z,9.70
2018-07-06T22:32:10.670Z,10.30
2018-07-06T22:34:38.130Z,8.80
2018-07-06T22:37:05.352Z,9.17
2018-07-06T22:39:32.625Z,9.97
2018-07-06T22:41:59.832Z,8.73
2018-07-06T22:44:27.072Z,9.63
2018-07-06T22:46:54.193Z,9.60
2018-07-06T22:49:21.395Z,9.10
2018-07-06T22:51:48.782Z,9.47
2018-07-06T22:54:16.207Z,9.90
2018-07-06T22:56:43.508Z,9.70
2018-07-06T22:59:10.566Z,9.10
2018-07-06T23:01:37.644Z,10.00
2018-07-06T23:04:05.653Z,9.70
2018-07-06T23:06:33.437Z,9.00
2018-07-06T23:09:00.573Z,9.40
2018-07-06T23:11:27.852Z,9.13
2018-07-06T23:13:56.463Z,8.80
2018-07-06T23:16:24.254Z,9.40
2018-07-06T23:18:52.440Z,8.43
2018-07-06T23:21:19.687Z,9.93
2018-07-06T23:23:47.277Z,8.33
2018-07-06T23:26:14.409Z,9.10
2018-07-06T23:28:42.202Z,9.20
2018-07-06T23:31:10.231Z,8.63
2018-07-06T23:33:37.336Z,9.00
2018-07-06T23:36:04.616Z,8.70
2018-07-06T23:38:31.800Z,8.70
2018-07-06T23:40:58.888Z,8.77
2018-07-06T23:43:25.995Z,9.30
2018-07-06T23:45:53.118Z,8.23
2018-07-06T23:48:20.287Z,9.10
2018-07-06T23:50:47.424Z,9.73
2018-07-06T23:53:14.513Z,9.00
2018-07-06T23:55:42.325Z,9.20
2018-07-06T23:58:09.691Z,9.27
